Time;durP1;ratioP1;P1;durP2;ratioP2;P2;SDS_P1;SDS_P2;PMS_P1;PMS_P2;Temp;Humidity;BMP_temperature;BMP_pressure;BME280_temperature;BME280_humidity;BME280_pressure;Samples;Min_cycle;Max_cycle;Signal;HPM_P1;HPM_P2
2022/08/15 00:03:30;;;;;;;;;;;27.90;37.50;;;26.19;38.19;100278.28;12260796;19;19919;-88
2022/08/15 00:07:31;;;;;;;;;;;27.90;37.60;;;26.26;38.41;100289.00;12255465;19;19939;-88
2022/08/15 00:11:39;;;;;;;;;;;27.80;37.60;;;26.25;38.29;100300.75;12257794;19;19911;-88
2022/08/15 00:15:40;;;;;;;;;;;27.80;37.60;;;25.98;38.48;100262.31;12260744;19;19907;-87
2022/08/15 00:19:47;;;;;;;;;;;27.80;37.70;;;26.00;38.76;100266.41;12263405;19;20018;-87
2022/08/15 00:23:49;;;;;;;;;;;27.70;37.70;;;25.96;38.54;100267.84;12259828;19;19927;-87
2022/08/15 00:27:51;;;;;;;;;;;27.70;37.80;;;25.55;38.79;100206.22;12256559;19;20301;-87
2022/08/15 00:31:56;;;;;;;;;;;27.60;37.70;;;26.00;38.26;100293.16;12256134;19;20231;-88
2022/08/15 00:35:58;;;;;;;;;;;27.60;37.80;;;25.76;38.61;100259.66;12255192;19;20269;-87
2022/08/15 00:39:59;;;;;;;;;;;27.80;38.00;;;25.88;38.95;100301.94;12255277;19;20235;-88
2022/08/15 00:44:03;;;;;;;;;;;27.60;38.00;;;25.76;39.03;100289.09;12255183;19;20242;-87
2022/08/15 00:52:27;;;;;;;;;;;27.40;37.80;;;25.73;38.65;100292.13;12252495;19;19918;-87
2022/08/15 00:56:33;;;;;;;;;;;27.30;37.90;;;25.57;39.29;100274.53;12253276;19;20333;-87
2022/08/15 01:00:42;;;;;;;;;;;27.20;38.10;;;25.55;39.19;100276.56;12251809;19;19911;-89
2022/08/15 01:04:45;;;;;;;;;;;27.40;38.20;;;25.37;39.10;100257.50;12255481;19;19915;-88
2022/08/15 01:08:48;;;;;;;;;;;27.10;38.10;;;25.35;39.10;100260.34;12251385;19;19923;-88
2022/08/15 01:12:49;;;;;;;;;;;27.10;38.10;;;25.27;39.31;100267.69;12250364;19;19985;-88
2022/08/15 01:16:52;;;;;;;;;;;27.00;38.30;;;24.80;39.47;100219.13;12255829;19;19914;-88
2022/08/15 01:20:54;;;;;;;;;;;27.00;38.30;;;25.08;39.60;100279.81;12251727;19;19915;-89
2022/08/15 01:25:00;;;;;;;;;;;26.80;38.30;;;24.68;39.57;100224.16;12252871;19;20294;-88
2022/08/15 01:29:03;;;;;;;;;;;26.90;38.60;;;24.89;39.47;100274.06;12251735;19;20342;-89
2022/08/15 01:33:05;;;;;;;;;;;26.60;38.50;;;24.59;39.54;100227.13;12247976;19;19911;-89
2022/08/15 01:37:07;;;;;;;;;;;26.50;38.40;;;24.74;39.98;100265.28;12252297;19;20469;-88
2022/08/15 01:41:29;;;;;;;;;;;26.70;38.60;;;24.65;40.18;100250.38;12244753;19;19915;-88
2022/08/15 01:45:32;;;;;;;;;;;26.40;38.70;;;24.20;40.22;100191.75;12251621;19;19903;-89
2022/08/15 01:50:07;;;;;;;;;;;26.30;38.60;;;24.68;40.16;100266.88;12249558;19;20270;-87
2022/08/15 01:54:12;;;;;;;;;;;26.30;38.80;;;24.47;39.84;100240.97;12249883;19;20292;-87
2022/08/15 01:58:16;;;;;;;;;;;26.20;38.80;;;24.61;40.18;100267.81;12249245;19;20361;-89
2022/08/15 02:02:18;;;;;;;;;;;26.20;38.90;;;24.34;40.25;100229.25;12257237;19;20000;-89
2022/08/15 02:06:25;;;;;;;;;;;26.20;39.00;;;24.35;40.20;100230.91;12253101;19;19923;-89
2022/08/15 02:10:27;;;;;;;;;;;26.10;38.90;;;24.40;40.22;100242.69;12256174;19;19911;-87
2022/08/15 02:14:31;;;;;;;;;;;26.10;38.90;;;24.42;40.34;100245.19;12256352;19;20344;-88
2022/08/15 02:18:33;;;;;;;;;;;26.10;39.10;;;24.40;40.66;100245.34;12257621;19;19921;-87
2022/08/15 02:22:35;;;;;;;;;;;26.10;39.20;;;24.40;40.58;100250.69;12252704;19;19944;-87
2022/08/15 02:26:36;;;;;;;;;;;26.10;39.20;;;24.40;40.86;100247.19;12255435;19;19982;-87
2022/08/15 02:30:38;;;;;;;;;;;26.00;39.10;;;24.34;40.45;100248.78;12256333;19;20375;-87
2022/08/15 02:34:43;;;;;;;;;;;26.00;39.20;;;24.32;40.92;100247.28;12257618;19;19911;-87
2022/08/15 02:38:46;;;;;;;;;;;25.90;39.30;;;24.18;40.96;100244.47;12253463;19;19931;-89
2022/08/15 02:42:48;;;;;;;;;;;25.90;39.40;;;23.87;40.78;100193.97;12249811;19;19951;-87
2022/08/15 02:46:53;;;;;;;;;;;25.80;39.40;;;24.22;40.98;100250.25;12247972;19;19919;-87
2022/08/15 02:50:55;;;;;;;;;;;25.80;39.50;;;24.26;40.79;100252.38;12249462;19;19915;-89
2022/08/15 02:54:59;;;;;;;;;;;25.90;39.50;;;24.26;41.28;100255.03;12252474;19;19915;-89
2022/08/15 02:59:02;;;;;;;;;;;25.80;39.70;;;24.21;41.24;100228.06;12253321;19;19918;-89
2022/08/15 03:03:07;;;;;;;;;;;26.20;39.80;;;24.21;41.09;100227.25;12260295;19;20273;-88
2022/08/15 03:07:10;;;;;;;;;;;25.90;39.70;;;24.31;41.40;100234.97;12260675;19;19971;-88
2022/08/15 03:11:12;;;;;;;;;;;25.80;39.80;;;24.30;40.88;100231.47;12259694;19;19911;-88
2022/08/15 03:15:14;;;;;;;;;;;25.90;39.80;;;24.38;41.08;100242.03;12262865;19;19939;-87
2022/08/15 03:19:20;;;;;;;;;;;25.90;39.80;;;24.32;41.04;100237.44;12261368;19;19930;-89
2022/08/15 03:23:25;;;;;;;;;;;25.90;39.80;;;24.18;41.27;100225.78;12260905;19;19930;-87
2022/08/15 03:27:27;;;;;;;;;;;25.90;39.90;;;24.20;41.26;100234.44;12258401;19;19987;-87
2022/08/15 03:31:28;;;;;;;;;;;25.90;40.00;;;24.02;41.66;100233.97;12254379;19;19930;-88
2022/08/15 03:35:37;;;;;;;;;;;25.80;40.00;;;23.80;41.45;100201.06;12261668;19;19914;-87
2022/08/15 03:39:39;;;;;;;;;;;25.70;40.30;;;23.77;41.85;100207.59;12259962;19;19978;-87
2022/08/15 03:43:43;;;;;;;;;;;25.80;40.10;;;23.76;41.50;100213.94;12260354;19;19970;-87
2022/08/15 03:47:45;;;;;;;;;;;25.60;40.00;;;23.72;41.72;100209.97;12257538;19;19936;-87
2022/08/15 03:51:46;;;;;;;;;;;25.50;40.10;;;23.60;42.06;100196.25;12254251;19;19915;-87
2022/08/15 03:55:49;;;;;;;;;;;25.50;40.40;;;23.51;42.12;100197.31;12258015;19;19917;-86
2022/08/15 03:59:51;;;;;;;;;;;25.40;40.20;;;23.55;41.83;100209.28;12256582;19;19919;-86
2022/08/15 04:03:53;;;;;;;;;;;25.40;40.20;;;23.68;41.86;100223.81;12258148;19;20269;-87
2022/08/15 04:07:58;;;;;;;;;;;25.30;40.20;;;23.64;42.20;100229.50;12254611;19;19922;-87
2022/08/15 04:12:00;;;;;;;;;;;25.30;40.50;;;23.47;42.35;100198.72;12251983;19;19919;-87
2022/08/15 04:16:13;;;;;;;;;;;25.30;40.40;;;23.54;41.99;100215.59;12256809;19;19918;-87
2022/08/15 04:20:16;;;;;;;;;;;25.20;40.50;;;23.49;42.23;100204.66;12256042;19;19938;-87
2022/08/15 04:24:18;;;;;;;;;;;25.20;40.60;;;23.35;42.47;100187.66;12256637;19;19951;-87
2022/08/15 04:28:21;;;;;;;;;;;25.20;40.60;;;23.11;42.38;100142.59;12253607;19;20314;-87
2022/08/15 04:32:26;;;;;;;;;;;25.20;40.70;;;23.32;42.55;100176.53;12247899;19;19922;-89
2022/08/15 04:36:28;;;;;;;;;;;25.10;40.90;;;23.36;42.57;100178.66;12254022;19;19911;-87
2022/08/15 04:40:31;;;;;;;;;;;25.10;40.90;;;23.50;42.42;100194.84;12252007;19;19918;-88
2022/08/15 04:44:36;;;;;;;;;;;25.10;40.90;;;23.49;42.85;100194.00;12255516;19;19919;-87
2022/08/15 04:48:39;;;;;;;;;;;25.10;41.00;;;23.45;42.60;100179.41;12249612;19;19919;-87
2022/08/15 04:52:51;;;;;;;;;;;25.20;41.00;;;23.51;42.84;100185.84;12251709;19;19923;-87
2022/08/15 04:56:53;;;;;;;;;;;25.20;41.30;;;23.60;42.56;100203.38;12255696;19;19925;-87
2022/08/15 05:01:02;;;;;;;;;;;25.20;41.30;;;23.36;42.64;100156.53;12249642;19;20281;-87
2022/08/15 05:05:10;;;;;;;;;;;25.20;41.30;;;23.75;42.93;100208.78;12254760;19;19918;-87
2022/08/15 05:09:12;;;;;;;;;;;25.30;41.40;;;23.52;43.08;100169.69;12252553;19;19939;-87
2022/08/15 05:13:19;;;;;;;;;;;25.30;41.40;;;23.70;43.06;100195.97;12252316;19;19919;-87
2022/08/15 05:17:21;;;;;;;;;;;25.40;41.50;;;23.79;43.13;100197.56;12253746;19;20330;-87
2022/08/15 05:21:23;;;;;;;;;;;25.40;41.50;;;23.85;43.15;100194.16;12250322;19;20325;-87
2022/08/15 05:25:26;;;;;;;;;;;25.50;41.80;;;23.89;43.28;100193.78;12249884;19;20004;-85
2022/08/15 05:29:28;;;;;;;;;;;25.50;41.70;;;23.98;43.69;100200.66;12248176;19;19922;-87
2022/08/15 05:33:30;;;;;;;;;;;25.60;41.50;;;24.02;43.36;100189.44;12256007;19;19923;-87
2022/08/15 05:37:33;;;;;;;;;;;25.70;41.60;;;24.18;43.48;100198.28;12255437;19;19910;-88
2022/08/15 05:42:01;;;;;;;;;;;25.90;41.70;;;24.34;43.19;100207.91;12250981;19;19931;-88
2022/08/15 05:46:16;;;;;;;;;;;25.80;41.90;;;24.42;43.42;100210.47;12254390;19;19907;-89
2022/08/15 05:50:41;;;;;;;;;;;25.90;42.00;;;24.39;43.21;100195.66;12251793;19;19997;-87
2022/08/15 05:55:05;;;;;;;;;;;25.90;42.00;;;24.61;43.61;100206.41;12252778;19;20426;-87
2022/08/15 05:59:12;;;;;;;;;;;26.10;41.70;;;24.64;43.63;100206.84;12252604;19;19926;-88
2022/08/15 06:03:23;;;;;;;;;;;26.10;42.40;;;24.69;43.80;100200.94;12253558;19;20582;-88
2022/08/15 06:07:26;;;;;;;;;;;26.20;41.70;;;24.73;43.56;100179.00;12249955;19;19911;-89
2022/08/15 06:11:39;;;;;;;;;;;26.30;42.20;;;25.05;43.74;100200.03;12249820;19;20340;-88
2022/08/15 06:16:01;;;;;;;;;;;26.40;42.30;;;25.25;43.80;100203.75;12251541;19;19925;-87
2022/08/15 06:20:06;;;;;;;;;;;26.60;42.30;;;25.21;43.71;100183.75;12247930;19;19989;-87
2022/08/15 06:24:40;;;;;;;;;;;26.80;42.40;;;25.48;43.52;100198.16;12249309;19;19923;-86
2022/08/15 06:28:54;;;;;;;;;;;26.80;42.30;;;25.64;43.78;100209.56;12242567;19;19914;-89
2022/08/15 06:33:15;;;;;;;;;;;27.00;42.20;;;25.77;43.99;100204.31;12246196;19;20599;-87
2022/08/15 06:37:42;;;;;;;;;;;27.10;42.70;;;25.67;43.90;100179.75;12249935;19;20327;-87
2022/08/15 06:41:52;;;;;;;;;;;27.20;42.30;;;25.88;43.65;100198.44;12244949;19;19915;-86
2022/08/15 06:46:07;;;;;;;;;;;27.30;42.40;;;25.86;43.94;100195.13;12248386;19;19910;-86
2022/08/15 06:50:18;;;;;;;;;;;27.40;42.00;;;25.63;44.05;100151.75;12245850;19;19926;-88
2022/08/15 06:54:24;;;;;;;;;;;27.50;42.50;;;25.92;43.78;100191.66;12249177;19;19978;-88
2022/08/15 06:58:52;;;;;;;;;;;27.70;43.00;;;26.05;44.10;100190.88;12249620;19;19922;-87
2022/08/15 07:03:09;;;;;;;;;;;27.50;42.20;;;26.15;44.28;100193.22;12244798;19;19927;-88
2022/08/15 07:07:17;;;;;;;;;;;27.60;42.10;;;26.19;44.21;100189.09;12246032;19;20411;-87
2022/08/15 07:11:23;;;;;;;;;;;27.70;41.80;;;26.31;43.82;100184.00;12242520;19;19979;-88
2022/08/15 07:15:58;;;;;;;;;;;27.80;42.50;;;26.38;44.13;100187.50;12248105;19;19925;-87
2022/08/15 07:20:00;;;;;;;;;;;27.80;42.60;;;26.37;43.95;100183.19;12244561;19;19940;-86
2022/08/15 07:24:26;;;;;;;;;;;27.90;42.30;;;26.49;44.06;100176.19;12246119;19;20253;-87
2022/08/15 07:28:30;;;;;;;;;;;28.00;42.20;;;26.50;44.03;100153.78;12243902;19;19915;-87
2022/08/15 07:32:55;;;;;;;;;;;28.10;42.40;;;26.67;43.87;100168.44;12242775;19;19932;-87
2022/08/15 07:37:01;;;;;;;;;;;28.10;42.30;;;26.84;44.14;100163.53;12247064;19;19919;-86
2022/08/15 07:41:18;;;;;;;;;;;28.30;42.60;;;27.02;44.38;100149.50;12239903;19;22151;-87
2022/08/15 07:45:31;;;;;;;;;;;28.50;42.40;;;26.97;44.18;100117.16;12247752;19;19926;-87
2022/08/15 07:49:41;;;;;;;;;;;28.60;42.60;;;27.46;43.84;100160.63;12258684;19;19928;-88
2022/08/15 07:54:01;;;;;;;;;;;28.90;42.70;;;27.76;43.79;100174.38;12260385;19;19915;-88
2022/08/15 07:58:18;;;;;;;;;;;29.00;42.60;;;27.89;44.04;100146.72;12259536;19;20384;-88
2022/08/15 08:02:29;;;;;;;;;;;29.20;42.60;;;28.16;44.31;100155.47;12252603;19;20329;-88
2022/08/15 08:06:32;;;;;;;;;;;29.50;42.60;;;28.09;43.72;100107.19;12256320;19;19907;-89
2022/08/15 08:10:49;;;;;;;;;;;29.60;42.50;;;28.51;43.76;100152.41;12255689;19;19936;-87
2022/08/15 08:15:14;;;;;;;;;;;29.80;42.20;;;28.73;43.75;100169.81;12259107;19;20328;-87
2022/08/15 08:19:37;;;;;;;;;;;30.00;42.20;;;28.84;43.89;100155.72;12257081;19;19923;-87
2022/08/15 08:23:44;;;;;;;;;;;30.20;42.20;;;28.95;43.80;100148.81;12256986;19;19929;-87
2022/08/15 08:28:16;;;;;;;;;;;30.40;42.20;;;28.88;43.90;100126.53;12259711;19;19946;-88
2022/08/15 08:32:40;;;;;;;;;;;30.40;41.90;;;29.20;43.59;100150.69;12256724;19;19918;-88
2022/08/15 08:37:26;;;;;;;;;;;30.60;42.10;;;29.21;43.67;100147.75;12257316;19;19907;-87
2022/08/15 08:42:02;;;;;;;;;;;30.60;41.80;;;29.36;43.73;100146.59;12251397;19;19919;-87
2022/08/15 08:46:19;;;;;;;;;;;30.70;41.80;;;29.25;43.16;100115.88;12255320;19;19915;-87
2022/08/15 08:50:48;;;;;;;;;;;30.80;42.00;;;29.56;43.69;100153.41;12247855;19;19931;-87
2022/08/15 08:55:13;;;;;;;;;;;30.90;41.80;;;29.47;43.24;100138.59;12254855;19;20337;-87
2022/08/15 08:59:26;;;;;;;;;;;31.00;41.60;;;29.48;43.03;100136.72;12255391;19;19914;-87
2022/08/15 09:03:34;;;;;;;;;;;31.00;41.50;;;29.47;43.68;100133.22;12253972;19;19944;-87
2022/08/15 09:07:40;;;;;;;;;;;31.00;41.50;;;29.39;43.29;100089.66;12252029;19;20403;-89
2022/08/15 09:11:49;;;;;;;;;;;31.10;41.60;;;29.85;43.40;100144.84;12253854;19;19911;-87
2022/08/15 09:15:53;;;;;;;;;;;31.20;41.70;;;29.90;42.97;100123.44;12253699;19;19922;-87
2022/08/15 09:20:10;;;;;;;;;;;31.30;41.70;;;30.06;43.13;100119.31;12252231;19;19926;-88
2022/08/15 09:24:13;;;;;;;;;;;31.40;41.50;;;30.21;43.11;100125.91;12253934;19;19922;-87
2022/08/15 09:28:20;;;;;;;;;;;31.60;41.50;;;30.05;43.00;100058.41;12252141;19;19944;-86
2022/08/15 09:32:54;;;;;;;;;;;31.70;41.50;;;30.70;43.37;100131.22;12247850;19;20358;-86
2022/08/15 09:37:12;;;;;;;;;;;31.90;41.40;;;30.78;42.92;100121.97;12255326;19;19919;-87
2022/08/15 09:41:42;;;;;;;;;;;32.10;41.20;;;30.89;42.98;100113.09;12250114;19;20401;-87
2022/08/15 09:46:13;;;;;;;;;;;32.20;41.10;;;31.18;42.94;100121.34;12256065;19;19922;-87
2022/08/15 09:50:38;;;;;;;;;;;32.40;41.20;;;31.34;42.82;100117.91;12252025;19;19944;-88
2022/08/15 09:54:50;;;;;;;;;;;32.60;41.10;;;31.34;42.73;100100.91;12253580;19;20317;-88
2022/08/15 09:58:53;;;;;;;;;;;32.70;40.70;;;31.43;42.68;100105.75;12253173;19;19936;-87
2022/08/15 10:03:01;;;;;;;;;;;32.80;40.80;;;31.42;42.47;100096.00;12247243;19;19956;-88
2022/08/15 10:07:02;;;;;;;;;;;32.90;40.00;;;31.48;42.12;100105.00;12250663;19;20372;-89
2022/08/15 10:11:12;;;;;;;;;;;32.90;40.20;;;31.46;42.33;100088.22;12249972;19;19915;-88
2022/08/15 10:15:23;;;;;;;;;;;32.90;40.30;;;31.57;42.48;100100.06;12251366;19;19935;-87
2022/08/15 10:19:35;;;;;;;;;;;33.00;40.30;;;31.61;42.08;100082.34;12252369;19;19921;-87
2022/08/15 10:23:37;;;;;;;;;;;33.10;40.10;;;31.57;41.84;100083.84;12251566;19;19929;-88
2022/08/15 10:28:12;;;;;;;;;;;33.10;40.00;;;31.50;42.09;100078.59;12246752;19;19907;-87
2022/08/15 10:32:28;;;;;;;;;;;33.00;39.80;;;31.39;41.86;100057.88;12248759;19;19915;-88
2022/08/15 10:36:34;;;;;;;;;;;32.90;39.80;;;31.34;41.97;100065.81;12250755;19;19930;-86
2022/08/15 10:40:59;;;;;;;;;;;33.10;39.90;;;31.36;41.57;100086.13;12249889;19;20301;-89
2022/08/15 10:45:20;;;;;;;;;;;32.90;39.80;;;31.06;41.75;100037.72;12246839;19;19952;-88
2022/08/15 10:49:54;;;;;;;;;;;32.80;39.80;;;31.33;41.84;100075.00;12244492;19;19922;-88
2022/08/15 10:54:05;;;;;;;;;;;32.80;39.70;;;31.35;41.54;100070.97;12247401;19;19918;-88
2022/08/15 10:58:19;;;;;;;;;;;32.80;39.70;;;31.29;41.77;100055.75;12247023;19;19943;-89
2022/08/15 11:02:41;;;;;;;;;;;32.80;39.80;;;31.35;41.31;100068.28;12242999;19;19953;-88
2022/08/15 11:06:46;;;;;;;;;;;32.80;39.40;;;30.99;41.75;100012.75;12246483;19;19929;-88
2022/08/15 11:10:48;;;;;;;;;;;32.80;39.40;;;31.30;41.74;100049.31;12245734;19;19925;-89
2022/08/15 11:14:58;;;;;;;;;;;32.80;39.60;;;31.57;41.52;100063.09;12247862;19;19910;-88
2022/08/15 11:19:02;;;;;;;;;;;32.80;39.50;;;31.69;41.35;100049.56;12247506;19;19923;-86
2022/08/15 11:23:07;;;;;;;;;;;33.00;39.60;;;31.88;41.49;100050.19;12248678;19;19922;-90
2022/08/15 11:27:14;;;;;;;;;;;33.10;38.70;;;32.05;41.09;100048.34;12258190;19;19926;-89
2022/08/15 11:31:18;;;;;;;;;;;33.20;39.30;;;32.13;40.78;100031.75;12257718;19;19922;-87
2022/08/15 11:35:28;;;;;;;;;;;33.40;39.30;;;32.33;40.89;100042.09;12257704;19;19923;-89
2022/08/15 11:39:31;;;;;;;;;;;33.50;39.40;;;32.42;40.63;100025.47;12261299;19;19923;-88
2022/08/15 11:43:32;;;;;;;;;;;33.60;39.00;;;32.38;40.71;99987.31;12256537;19;19922;-88
2022/08/15 11:47:41;;;;;;;;;;;33.70;39.20;;;32.66;40.55;100009.94;12256132;19;20329;-88
2022/08/15 11:51:45;;;;;;;;;;;33.90;39.40;;;32.79;40.45;100009.56;12256194;19;19918;-88
2022/08/15 11:55:47;;;;;;;;;;;34.10;38.90;;;32.64;40.64;99963.38;12258337;19;19942;-89
2022/08/15 12:00:10;;;;;;;;;;;34.20;39.30;;;32.71;40.19;99975.66;12258659;19;19998;-88
2022/08/15 12:04:12;;;;;;;;;;;34.20;38.70;;;32.65;40.16;99965.84;12256321;19;19983;-88
2022/08/15 12:08:21;;;;;;;;;;;34.20;38.30;;;32.94;40.04;100006.25;12253174;19;19928;-89
2022/08/15 12:12:28;;;;;;;;;;;34.30;38.60;;;33.02;39.99;100025.59;12250033;19;19915;-88
2022/08/15 12:16:34;;;;;;;;;;;34.40;38.60;;;32.89;39.65;100014.28;12255251;19;19919;-88
2022/08/15 12:21:03;;;;;;;;;;;34.30;38.50;;;32.76;39.92;100021.72;12248877;19;19999;-88
2022/08/15 12:25:09;;;;;;;;;;;34.30;38.10;;;32.56;39.71;100010.56;12250372;19;19915;-88
2022/08/15 12:29:10;;;;;;;;;;;34.20;38.20;;;32.46;39.77;100004.97;12248257;19;19998;-88
2022/08/15 12:33:13;;;;;;;;;;;34.10;38.40;;;32.43;39.94;100011.69;12249163;19;19915;-89
2022/08/15 12:37:22;;;;;;;;;;;34.00;38.20;;;32.45;40.08;100020.38;12252562;19;19918;-89
2022/08/15 12:41:25;;;;;;;;;;;33.90;38.40;;;32.36;39.76;99992.13;12248827;19;19918;-88
2022/08/15 12:45:26;;;;;;;;;;;33.90;38.50;;;32.38;40.06;99992.72;12252829;19;19915;-88
2022/08/15 12:49:28;;;;;;;;;;;33.90;38.60;;;32.18;40.04;99950.78;12248128;19;19922;-88
2022/08/15 12:53:29;;;;;;;;;;;33.90;38.60;;;32.46;39.78;99984.19;12249857;19;19943;-89
2022/08/15 12:57:31;;;;;;;;;;;33.90;38.50;;;32.08;39.87;99904.72;12251201;19;19919;-88
2022/08/15 13:01:36;;;;;;;;;;;33.90;38.60;;;32.69;39.86;99976.97;12248757;19;19911;-90
2022/08/15 13:05:37;;;;;;;;;;;34.00;38.20;;;32.80;39.73;99966.03;12251522;19;19919;-88
2022/08/15 13:09:39;;;;;;;;;;;34.00;38.50;;;32.91;39.74;99969.69;12251735;19;19923;-88
2022/08/15 13:13:41;;;;;;;;;;;34.10;38.00;;;32.75;39.58;99938.09;12249509;19;19925;-89
2022/08/15 13:17:42;;;;;;;;;;;34.10;38.30;;;33.04;39.40;99955.00;12252335;19;19924;-89
2022/08/15 13:26:12;;;;;;;;;;;34.40;38.30;;;33.21;38.93;99966.56;12249918;19;20326;-88
2022/08/15 13:30:15;;;;;;;;;;;34.50;38.20;;;33.12;39.39;99935.63;12247161;19;19911;-87
2022/08/15 13:34:18;;;;;;;;;;;34.50;37.90;;;33.21;39.21;99938.69;12249697;19;19951;-87
2022/08/15 13:38:20;;;;;;;;;;;34.60;37.80;;;33.26;39.25;99917.09;12248182;19;19992;-87
2022/08/15 13:42:24;;;;;;;;;;;34.60;38.00;;;33.44;39.03;99919.47;12244390;19;19931;-88
2022/08/15 13:46:25;;;;;;;;;;;34.80;37.50;;;33.63;38.99;99917.22;12244901;19;19918;-90
2022/08/15 13:50:27;;;;;;;;;;;34.90;38.10;;;33.38;38.69;99870.91;12246127;19;19919;-86
2022/08/15 13:54:29;;;;;;;;;;;35.00;37.80;;;33.37;38.51;99847.66;12248422;19;19923;-89
2022/08/15 13:58:30;;;;;;;;;;;35.10;38.10;;;33.59;38.68;99872.78;12250685;19;19942;-87
2022/08/15 14:02:32;;;;;;;;;;;35.20;37.80;;;33.49;38.43;99834.78;12247004;19;19926;-87
2022/08/15 14:06:35;;;;;;;;;;;35.20;37.60;;;33.56;38.28;99846.22;12250356;19;19919;-88
2022/08/15 14:10:38;;;;;;;;;;;35.20;36.90;;;33.31;38.51;99816.19;12247821;19;19911;-89
2022/08/15 14:14:39;;;;;;;;;;;35.20;37.30;;;33.53;38.37;99862.13;12247987;19;19914;-87
2022/08/15 14:18:42;;;;;;;;;;;35.30;37.30;;;33.70;38.27;99884.50;12248674;19;19918;-87
2022/08/15 14:22:44;;;;;;;;;;;35.20;36.90;;;33.82;38.56;99895.19;12246329;19;19994;-87
2022/08/15 14:26:49;;;;;;;;;;;35.20;37.30;;;33.80;38.16;99884.59;12248801;19;19927;-88
2022/08/15 14:30:50;;;;;;;;;;;35.20;37.50;;;33.47;38.00;99836.91;12248028;19;19922;-88
2022/08/15 14:34:52;;;;;;;;;;;35.20;37.30;;;33.52;38.25;99838.84;12248025;19;20017;-88
2022/08/15 14:38:54;;;;;;;;;;;35.20;37.40;;;33.76;38.40;99866.44;12246512;19;20638;-87
2022/08/15 14:42:56;;;;;;;;;;;35.20;37.40;;;33.81;38.08;99864.56;12242171;19;19939;-88
2022/08/15 14:46:59;;;;;;;;;;;35.30;37.70;;;33.90;38.11;99879.25;12247096;19;19949;-88
2022/08/15 14:51:01;;;;;;;;;;;35.20;37.00;;;33.87;38.16;99862.72;12244961;19;19915;-88
2022/08/15 14:55:06;;;;;;;;;;;35.30;37.30;;;34.10;37.80;99904.91;12250311;19;19954;-88
2022/08/15 14:59:07;;;;;;;;;;;35.30;37.50;;;34.03;37.62;99886.13;12257240;19;19929;-88
2022/08/15 15:03:10;;;;;;;;;;;35.40;37.30;;;34.06;37.57;99898.38;12255611;19;19922;-87
2022/08/15 15:07:13;;;;;;;;;;;35.40;37.30;;;33.92;37.58;99889.84;12256109;19;19926;-88
2022/08/15 15:11:15;;;;;;;;;;;35.40;36.80;;;34.08;37.65;99907.03;12253566;19;20362;-88
2022/08/15 15:15:16;;;;;;;;;;;35.40;36.90;;;33.92;37.61;99893.38;12258848;19;19915;-88
2022/08/15 15:19:20;;;;;;;;;;;35.40;37.30;;;33.79;37.65;99855.88;12254131;19;19938;-88
2022/08/15 15:23:23;;;;;;;;;;;35.40;37.00;;;34.10;37.82;99910.31;12256262;19;19915;-90
2022/08/15 15:27:24;;;;;;;;;;;35.40;37.10;;;33.75;37.24;99852.06;12252498;19;20290;-89
2022/08/15 15:31:26;;;;;;;;;;;35.40;36.90;;;33.75;37.19;99835.78;12251554;19;19977;-90
2022/08/15 15:35:27;;;;;;;;;;;35.40;37.10;;;33.83;37.10;99862.41;12254153;19;19931;-88
2022/08/15 15:39:28;;;;;;;;;;;35.20;36.40;;;33.79;37.00;99836.91;12253798;19;19922;-91
2022/08/15 15:43:30;;;;;;;;;;;35.50;36.90;;;33.99;37.06;99866.03;12254688;19;19939;-90
2022/08/15 15:47:31;;;;;;;;;;;35.50;36.70;;;33.72;37.23;99828.19;12253638;19;20211;-90
2022/08/15 15:51:35;;;;;;;;;;;35.40;36.90;;;33.83;37.02;99856.97;12251211;19;19919;-88
2022/08/15 15:55:36;;;;;;;;;;;35.40;36.70;;;33.79;37.11;99847.75;12254063;19;20321;-88
2022/08/15 15:59:38;;;;;;;;;;;35.50;36.50;;;33.96;37.09;99887.44;12254379;19;20005;-88
2022/08/15 16:03:40;;;;;;;;;;;35.40;36.40;;;33.63;36.64;99846.00;12255127;19;20246;-89
2022/08/15 16:07:42;;;;;;;;;;;35.40;35.60;;;33.62;37.08;99861.44;12252249;19;19941;-89
2022/08/15 16:11:52;;;;;;;;;;;35.30;36.10;;;33.87;37.21;99906.88;12253111;19;19927;-90
2022/08/15 16:16:10;;;;;;;;;;;35.30;36.50;;;33.79;36.87;99899.22;12246352;19;19943;-90
2022/08/15 16:20:45;;;;;;;;;;;35.30;36.30;;;33.71;37.14;99886.97;12253069;19;19907;-89
2022/08/15 16:25:19;;;;;;;;;;;35.10;36.30;;;33.73;36.83;99894.84;12255607;19;19955;-88
2022/08/15 16:29:35;;;;;;;;;;;35.10;36.30;;;33.57;36.84;99928.28;12248647;19;19929;-89
2022/08/15 16:33:41;;;;;;;;;;;35.00;36.20;;;33.49;37.01;99976.38;12254032;19;19922;-89
2022/08/15 16:37:46;;;;;;;;;;;34.90;36.10;;;32.97;36.96;99982.25;12254342;19;19917;-88
2022/08/15 16:41:59;;;;;;;;;;;34.90;35.90;;;32.50;37.40;99985.34;12251414;19;19979;-88
2022/08/15 16:46:12;;;;;;;;;;;34.50;36.00;;;32.18;37.37;100010.22;12256007;19;19914;-91
2022/08/15 16:50:37;;;;;;;;;;;34.10;36.00;;;31.83;37.39;100045.50;12250285;19;19915;-90
2022/08/15 16:54:59;;;;;;;;;;;33.80;36.20;;;31.39;37.47;100053.28;12254292;19;19915;-88
2022/08/15 16:59:33;;;;;;;;;;;33.40;36.40;;;31.00;38.12;100097.97;12254281;19;19934;-89
2022/08/15 17:03:50;;;;;;;;;;;33.00;36.70;;;30.56;38.27;100124.41;12256343;19;19922;-90
2022/08/15 17:08:06;;;;;;;;;;;32.60;37.00;;;30.19;38.58;100127.19;12255618;19;19922;-88
2022/08/15 17:12:26;;;;;;;;;;;32.20;37.40;;;29.85;38.81;100126.81;12251869;19;19930;-88
2022/08/15 17:16:42;;;;;;;;;;;31.80;37.70;;;29.50;38.92;100116.63;12257597;19;19923;-88
2022/08/15 17:21:00;;;;;;;;;;;31.50;37.90;;;28.97;39.29;100074.09;12250857;19;19983;-89
2022/08/15 17:25:02;;;;;;;;;;;31.10;37.90;;;28.54;39.36;100061.47;12260563;19;19911;-92
2022/08/15 17:29:13;;;;;;;;;;;30.70;38.20;;;28.15;39.76;100063.38;12256604;19;19923;-89
2022/08/15 17:33:27;;;;;;;;;;;30.30;38.80;;;27.93;39.77;100060.19;12256773;19;19936;-91
2022/08/15 17:37:29;;;;;;;;;;;29.90;38.80;;;27.77;39.46;100060.66;12255607;19;20249;-89
2022/08/15 17:41:38;;;;;;;;;;;29.60;38.80;;;27.61;39.71;100047.75;12253837;19;19915;-91
2022/08/15 17:45:41;;;;;;;;;;;29.40;39.20;;;27.41;40.10;100037.06;12254373;19;19927;-92
2022/08/15 17:49:55;;;;;;;;;;;29.20;39.20;;;27.11;39.92;100000.00;12249259;19;19922;-90
2022/08/15 17:54:00;;;;;;;;;;;28.90;39.20;;;26.95;40.04;99973.66;12248212;19;20364;-91
2022/08/15 17:58:23;;;;;;;;;;;28.80;39.50;;;27.27;40.08;100017.53;12248921;19;20340;-90
2022/08/15 18:02:25;;;;;;;;;;;28.80;39.70;;;27.21;40.12;100013.00;12243008;19;19970;-89
2022/08/15 18:06:27;;;;;;;;;;;28.60;39.80;;;27.08;40.01;100005.78;12244616;19;19927;-91
2022/08/15 18:10:38;;;;;;;;;;;28.60;40.00;;;27.03;40.24;100002.91;12245600;19;20392;-90
2022/08/15 18:14:40;;;;;;;;;;;28.60;40.10;;;26.94;40.35;100031.81;12249106;19;19910;-90
2022/08/15 18:18:47;;;;;;;;;;;28.50;40.10;;;27.03;40.33;100059.19;12248985;19;19922;-90
2022/08/15 18:23:12;;;;;;;;;;;28.40;40.30;;;26.90;40.56;100054.72;12246589;19;19910;-90
2022/08/15 18:27:27;;;;;;;;;;;28.40;40.00;;;26.73;40.59;100056.16;12245220;19;19974;-90
2022/08/15 18:31:35;;;;;;;;;;;28.30;40.80;;;26.59;40.76;100074.06;12242689;19;20031;-90
2022/08/15 18:35:40;;;;;;;;;;;28.30;40.70;;;26.41;41.13;100077.31;12249538;19;19978;-89
2022/08/15 18:44:15;;;;;;;;;;;28.00;40.60;;;26.16;41.01;100085.94;12248930;19;19940;-91
2022/08/15 18:48:18;;;;;;;;;;;27.80;40.70;;;26.14;41.22;100090.69;12243235;19;20319;-89
2022/08/15 18:52:26;;;;;;;;;;;27.90;41.10;;;26.30;41.22;100121.56;12242992;19;20345;-90
2022/08/15 18:56:32;;;;;;;;;;;27.70;41.20;;;26.33;41.31;100131.91;12242922;19;19923;-90